sensor_id;sensor_type;location;lat;lon;timestamp;pressure;altitude;pressure_sealevel;temperature;humidity
71964;BME280;59834;52.124;5.422;2024-01-30T00:01:49;102627.38;;;5.55;100.00
71964;BME280;59834;52.124;5.422;2024-01-30T00:04:15;102636.06;;;5.54;100.00
71964;BME280;59834;52.124;5.422;2024-01-30T00:06:47;102629.13;;;5.53;100.00
71964;BME280;59834;52.124;5.422;2024-01-30T00:09:17;102630.06;;;5.50;100.00
71964;BME280;59834;52.124;5.422;2024-01-30T00:11:44;102623.97;;;5.50;100.00
71964;BME280;59834;52.124;5.422;2024-01-30T00:14:12;102630.91;;;5.51;100.00
71964;BME280;59834;52.124;5.422;2024-01-30T00:16:38;102625.69;;;5.54;100.00
71964;BME280;59834;52.124;5.422;2024-01-30T00:19:06;102624.78;;;5.53;100.00
71964;BME280;59834;52.124;5.422;2024-01-30T00:21:35;102632.59;;;5.53;100.00
71964;BME280;59834;52.124;5.422;2024-01-30T00:24:05;102623.94;;;5.53;100.00
71964;BME280;59834;52.124;5.422;2024-01-30T00:26:32;102627.41;;;5.52;100.00
71964;BME280;59834;52.124;5.422;2024-01-30T00:29:01;102620.53;;;5.49;100.00
71964;BME280;59834;52.124;5.422;2024-01-30T00:31:28;102623.97;;;5.50;100.00
71964;BME280;59834;52.124;5.422;2024-01-30T00:33:56;102618.78;;;5.50;100.00
71964;BME280;59834;52.124;5.422;2024-01-30T00:36:23;102617.06;;;5.50;100.00
71964;BME280;59834;52.124;5.422;2024-01-30T00:38:50;102621.38;;;5.50;100.00
71964;BME280;59834;52.124;5.422;2024-01-30T00:41:17;102623.97;;;5.50;100.00
71964;BME280;59834;52.124;5.422;2024-01-30T00:43:45;102619.59;;;5.53;100.00
71964;BME280;59834;52.124;5.422;2024-01-30T00:46:12;102617.88;;;5.54;100.00
71964;BME280;59834;52.124;5.422;2024-01-30T00:48:39;102617.03;;;5.52;100.00
71964;BME280;59834;52.124;5.422;2024-01-30T00:51:05;102614.50;;;5.47;100.00
71964;BME280;59834;52.124;5.422;2024-01-30T00:53:32;102616.22;;;5.48;100.00
71964;BME280;59834;52.124;5.422;2024-01-30T00:56:19;102619.66;;;5.50;100.00
71964;BME280;59834;52.124;5.422;2024-01-30T00:58:46;102617.06;;;5.50;100.00
71964;BME280;59834;52.124;5.422;2024-01-30T01:01:13;102611.88;;;5.49;100.00
71964;BME280;59834;52.124;5.422;2024-01-30T01:03:40;102617.94;;;5.49;100.00
71964;BME280;59834;52.124;5.422;2024-01-30T01:06:08;102611.03;;;5.48;100.00
71964;BME280;59834;52.124;5.422;2024-01-30T01:08:35;102613.66;;;5.47;100.00
71964;BME280;59834;52.124;5.422;2024-01-30T01:11:02;102615.41;;;5.43;100.00
71964;BME280;59834;52.124;5.422;2024-01-30T01:13:29;102607.63;;;5.43;100.00
71964;BME280;59834;52.124;5.422;2024-01-30T01:15:56;102606.75;;;5.44;100.00
71964;BME280;59834;52.124;5.422;2024-01-30T01:18:23;102604.97;;;5.48;100.00
71964;BME280;59834;52.124;5.422;2024-01-30T01:20:51;102606.72;;;5.47;100.00
71964;BME280;59834;52.124;5.422;2024-01-30T01:23:23;102599.78;;;5.46;100.00
71964;BME280;59834;52.124;5.422;2024-01-30T01:25:50;102596.34;;;5.47;100.00
71964;BME280;59834;52.124;5.422;2024-01-30T01:28:17;102590.31;;;5.43;100.00
71964;BME280;59834;52.124;5.422;2024-01-30T01:30:44;102579.94;;;5.43;100.00
71964;BME280;59834;52.124;5.422;2024-01-30T01:33:11;102578.19;;;5.42;100.00
71964;BME280;59834;52.124;5.422;2024-01-30T01:35:41;102582.56;;;5.39;100.00
71964;BME280;59834;52.124;5.422;2024-01-30T01:38:08;102585.13;;;5.42;100.00
71964;BME280;59834;52.124;5.422;2024-01-30T01:40:34;102585.94;;;5.46;100.00
71964;BME280;59834;52.124;5.422;2024-01-30T01:43:03;102583.34;;;5.47;100.00
71964;BME280;59834;52.124;5.422;2024-01-30T01:45:35;102586.81;;;5.46;100.00
71964;BME280;59834;52.124;5.422;2024-01-30T01:48:03;102588.53;;;5.47;100.00
71964;BME280;59834;52.124;5.422;2024-01-30T01:50:32;102585.91;;;5.49;100.00
71964;BME280;59834;52.124;5.422;2024-01-30T01:52:59;102581.59;;;5.46;100.00
71964;BME280;59834;52.124;5.422;2024-01-30T01:55:26;102581.56;;;5.49;100.00
71964;BME280;59834;52.124;5.422;2024-01-30T01:57:54;102579.84;;;5.48;100.00
71964;BME280;59834;52.124;5.422;2024-01-30T02:00:22;102583.34;;;5.46;100.00
71964;BME280;59834;52.124;5.422;2024-01-30T02:02:49;102581.66;;;5.43;100.00
71964;BME280;59834;52.124;5.422;2024-01-30T02:05:16;102584.25;;;5.43;100.00
71964;BME280;59834;52.124;5.422;2024-01-30T02:07:43;102576.44;;;5.43;100.00
71964;BME280;59834;52.124;5.422;2024-01-30T02:10:10;102583.38;;;5.44;100.00
71964;BME280;59834;52.124;5.422;2024-01-30T02:12:37;102577.31;;;5.45;100.00
71964;BME280;59834;52.124;5.422;2024-01-30T02:15:05;102579.06;;;5.43;100.00
71964;BME280;59834;52.124;5.422;2024-01-30T02:17:34;102573.84;;;5.43;100.00
71964;BME280;59834;52.124;5.422;2024-01-30T02:20:01;102573.00;;;5.44;100.00
71964;BME280;59834;52.124;5.422;2024-01-30T02:22:31;102578.16;;;5.47;100.00
71964;BME280;59834;52.124;5.422;2024-01-30T02:25:00;102575.50;;;5.50;100.00
71964;BME280;59834;52.124;5.422;2024-01-30T02:27:26;102570.28;;;5.52;100.00
71964;BME280;59834;52.124;5.422;2024-01-30T02:29:53;102581.56;;;5.51;100.00
71964;BME280;59834;52.124;5.422;2024-01-30T02:32:20;102586.69;;;5.55;100.00
71964;BME280;59834;52.124;5.422;2024-01-30T02:34:46;102588.34;;;5.59;100.00
71964;BME280;59834;52.124;5.422;2024-01-30T02:37:13;102582.25;;;5.62;100.00
71964;BME280;59834;52.124;5.422;2024-01-30T02:39:40;102590.97;;;5.58;100.00
71964;BME280;59834;52.124;5.422;2024-01-30T02:42:07;102579.69;;;5.59;100.00
71964;BME280;59834;52.124;5.422;2024-01-30T02:44:34;102578.00;;;5.58;100.00
71964;BME280;59834;52.124;5.422;2024-01-30T02:47:00;102584.00;;;5.60;100.00
71964;BME280;59834;52.124;5.422;2024-01-30T02:49:27;102574.50;;;5.60;100.00
71964;BME280;59834;52.124;5.422;2024-01-30T02:51:54;102567.56;;;5.59;100.00
71964;BME280;59834;52.124;5.422;2024-01-30T02:54:21;102570.16;;;5.59;100.00
71964;BME280;59834;52.124;5.422;2024-01-30T02:56:48;102567.59;;;5.58;100.00
71964;BME280;59834;52.124;5.422;2024-01-30T02:59:15;102562.44;;;5.55;100.00
71964;BME280;59834;52.124;5.422;2024-01-30T03:01:45;102557.25;;;5.55;100.00
71964;BME280;59834;52.124;5.422;2024-01-30T03:04:13;102553.81;;;5.54;100.00
71964;BME280;59834;52.124;5.422;2024-01-30T03:06:45;102556.41;;;5.53;100.00
71964;BME280;59834;52.124;5.422;2024-01-30T03:09:16;102553.81;;;5.54;100.00
71964;BME280;59834;52.124;5.422;2024-01-30T03:11:43;102552.94;;;5.54;100.00
71964;BME280;59834;52.124;5.422;2024-01-30T03:14:09;102552.06;;;5.53;100.00
71964;BME280;59834;52.124;5.422;2024-01-30T03:16:39;102544.25;;;5.55;100.00
71964;BME280;59834;52.124;5.422;2024-01-30T03:19:06;102530.44;;;5.54;100.00
71964;BME280;59834;52.124;5.422;2024-01-30T03:21:37;102528.69;;;5.53;100.00
71964;BME280;59834;52.124;5.422;2024-01-30T03:24:03;102526.09;;;5.53;100.00
71964;BME280;59834;52.124;5.422;2024-01-30T03:26:30;102528.69;;;5.55;100.00
71964;BME280;59834;52.124;5.422;2024-01-30T03:28:57;102529.53;;;5.55;100.00
71964;BME280;59834;52.124;5.422;2024-01-30T03:31:24;102531.19;;;5.59;100.00
71964;BME280;59834;52.124;5.422;2024-01-30T03:33:51;102541.56;;;5.61;100.00
71964;BME280;59834;52.124;5.422;2024-01-30T03:36:19;102527.69;;;5.63;100.00
71964;BME280;59834;52.124;5.422;2024-01-30T03:38:46;102532.84;;;5.65;100.00
71964;BME280;59834;52.124;5.422;2024-01-30T03:41:12;102528.50;;;5.67;100.00
71964;BME280;59834;52.124;5.422;2024-01-30T03:43:40;102525.88;;;5.68;100.00
71964;BME280;59834;52.124;5.422;2024-01-30T03:46:07;102519.78;;;5.70;100.00
71964;BME280;59834;52.124;5.422;2024-01-30T03:48:41;102520.66;;;5.70;100.00
71964;BME280;59834;52.124;5.422;2024-01-30T03:51:08;102511.13;;;5.71;100.00
71964;BME280;59834;52.124;5.422;2024-01-30T03:53:35;102519.72;;;5.74;100.00
71964;BME280;59834;52.124;5.422;2024-01-30T03:56:04;102517.09;;;5.76;100.00
71964;BME280;59834;52.124;5.422;2024-01-30T03:58:31;102516.19;;;5.78;100.00
71964;BME280;59834;52.124;5.422;2024-01-30T04:00:58;102506.59;;;5.82;100.00
71964;BME280;59834;52.124;5.422;2024-01-30T04:03:27;102514.34;;;5.83;100.00
71964;BME280;59834;52.124;5.422;2024-01-30T04:05:54;102522.97;;;5.87;100.00
71964;BME280;59834;52.124;5.422;2024-01-30T04:08:20;102515.94;;;5.92;100.00
71964;BME280;59834;52.124;5.422;2024-01-30T04:10:48;102528.91;;;5.95;100.00
71964;BME280;59834;52.124;5.422;2024-01-30T04:13:14;102517.63;;;5.98;100.00
71964;BME280;59834;52.124;5.422;2024-01-30T04:15:41;102521.03;;;6.00;100.00
71964;BME280;59834;52.124;5.422;2024-01-30T04:18:08;102522.72;;;6.02;100.00
71964;BME280;59834;52.124;5.422;2024-01-30T04:20:35;102526.97;;;6.06;100.00
71964;BME280;59834;52.124;5.422;2024-01-30T04:23:04;102525.22;;;6.08;100.00
71964;BME280;59834;52.124;5.422;2024-01-30T04:25:31;102521.72;;;6.09;100.00
71964;BME280;59834;52.124;5.422;2024-01-30T04:28:00;102517.44;;;6.08;100.00
71964;BME280;59834;52.124;5.422;2024-01-30T04:30:27;102509.59;;;6.10;100.00
71964;BME280;59834;52.124;5.422;2024-01-30T04:33:19;102508.72;;;6.09;100.00
71964;BME280;59834;52.124;5.422;2024-01-30T04:35:47;102497.47;;;6.10;100.00
71964;BME280;59834;52.124;5.422;2024-01-30T04:38:22;102490.53;;;6.09;100.00
71964;BME280;59834;52.124;5.422;2024-01-30T04:40:51;102491.44;;;6.08;100.00
71964;BME280;59834;52.124;5.422;2024-01-30T04:43:42;102495.72;;;6.09;100.00
71964;BME280;59834;52.124;5.422;2024-01-30T04:46:09;102493.97;;;6.11;100.00
71964;BME280;59834;52.124;5.422;2024-01-30T04:48:36;102480.09;;;6.12;100.00
71964;BME280;59834;52.124;5.422;2024-01-30T04:51:05;102493.97;;;6.11;100.00
71964;BME280;59834;52.124;5.422;2024-01-30T04:53:35;102493.97;;;6.11;100.00
71964;BME280;59834;52.124;5.422;2024-01-30T04:56:02;102498.28;;;6.14;100.00
71964;BME280;59834;52.124;5.422;2024-01-30T04:58:28;102493.06;;;6.14;100.00
71964;BME280;59834;52.124;5.422;2024-01-30T05:00:58;102494.78;;;6.15;100.00
71964;BME280;59834;52.124;5.422;2024-01-30T05:03:25;102500.78;;;6.19;100.00
71964;BME280;59834;52.124;5.422;2024-01-30T05:05:51;102492.94;;;6.20;100.00
71964;BME280;59834;52.124;5.422;2024-01-30T05:08:18;102497.28;;;6.21;100.00
71964;BME280;59834;52.124;5.422;2024-01-30T05:10:45;102484.28;;;6.20;100.00
71964;BME280;59834;52.124;5.422;2024-01-30T05:13:12;102503.28;;;6.23;100.00
71964;BME280;59834;52.124;5.422;2024-01-30T05:15:42;102494.63;;;6.23;100.00
71964;BME280;59834;52.124;5.422;2024-01-30T05:18:09;102492.88;;;6.25;100.00
71964;BME280;59834;52.124;5.422;2024-01-30T05:20:36;102499.75;;;6.27;100.00
71964;BME280;59834;52.124;5.422;2024-01-30T05:23:02;102488.34;;;6.34;100.00
71964;BME280;59834;52.124;5.422;2024-01-30T05:25:29;102490.88;;;6.37;100.00
71964;BME280;59834;52.124;5.422;2024-01-30T05:27:56;102476.03;;;6.44;100.00
71964;BME280;59834;52.124;5.422;2024-01-30T05:30:23;102478.56;;;6.47;100.00
71964;BME280;59834;52.124;5.422;2024-01-30T05:32:49;102482.81;;;6.50;100.00
71964;BME280;59834;52.124;5.422;2024-01-30T05:35:17;102462.00;;;6.51;100.00
71964;BME280;59834;52.124;5.422;2024-01-30T05:37:43;102462.91;;;6.49;100.00
71964;BME280;59834;52.124;5.422;2024-01-30T05:40:10;102467.25;;;6.48;100.00
71964;BME280;59834;52.124;5.422;2024-01-30T05:42:37;102468.16;;;6.46;100.00
71964;BME280;59834;52.124;5.422;2024-01-30T05:45:04;102487.22;;;6.46;100.00
71964;BME280;59834;52.124;5.422;2024-01-30T05:47:31;102491.56;;;6.47;100.00
71964;BME280;59834;52.124;5.422;2024-01-30T05:49:58;102482.88;;;6.48;100.00
71964;BME280;59834;52.124;5.422;2024-01-30T05:52:25;102466.47;;;6.45;100.00
71964;BME280;59834;52.124;5.422;2024-01-30T05:54:51;102478.63;;;6.44;100.00
71964;BME280;59834;52.124;5.422;2024-01-30T05:57:18;102478.56;;;6.46;100.00
71964;BME280;59834;52.124;5.422;2024-01-30T05:59:45;102489.84;;;6.46;100.00
71964;BME280;59834;52.124;5.422;2024-01-30T06:02:14;102486.28;;;6.50;100.00
71964;BME280;59834;52.124;5.422;2024-01-30T06:04:41;102494.03;;;6.53;100.00
71964;BME280;59834;52.124;5.422;2024-01-30T06:07:07;102487.09;;;6.54;100.00
71964;BME280;59834;52.124;5.422;2024-01-30T06:09:37;102482.69;;;6.57;100.00
71964;BME280;59834;52.124;5.422;2024-01-30T06:12:07;102488.69;;;6.61;100.00
71964;BME280;59834;52.124;5.422;2024-01-30T06:14:34;102491.25;;;6.63;100.00
71964;BME280;59834;52.124;5.422;2024-01-30T06:17:01;102486.88;;;6.63;100.00
71964;BME280;59834;52.124;5.422;2024-01-30T06:19:29;102483.41;;;6.64;100.00
71964;BME280;59834;52.124;5.422;2024-01-30T06:21:56;102497.28;;;6.63;100.00
71964;BME280;59834;52.124;5.422;2024-01-30T06:24:23;102491.25;;;6.63;100.00
71964;BME280;59834;52.124;5.422;2024-01-30T06:26:49;102474.78;;;6.62;100.00
71964;BME280;59834;52.124;5.422;2024-01-30T06:29:16;102475.63;;;6.63;100.00
71964;BME280;59834;52.124;5.422;2024-01-30T06:31:46;102482.53;;;6.64;100.00
71964;BME280;59834;52.124;5.422;2024-01-30T06:34:13;102485.06;;;6.67;100.00
71964;BME280;59834;52.124;5.422;2024-01-30T06:36:40;102485.91;;;6.69;100.00
71964;BME280;59834;52.124;5.422;2024-01-30T06:39:07;102489.41;;;6.68;100.00
71964;BME280;59834;52.124;5.422;2024-01-30T06:41:34;102490.28;;;6.68;100.00
71964;BME280;59834;52.124;5.422;2024-01-30T06:44:07;102491.97;;;6.69;100.00
71964;BME280;59834;52.124;5.422;2024-01-30T06:46:35;102492.75;;;6.73;100.00
71964;BME280;59834;52.124;5.422;2024-01-30T06:49:02;102502.38;;;6.71;100.00
71964;BME280;59834;52.124;5.422;2024-01-30T06:51:29;102497.97;;;6.73;100.00
71964;BME280;59834;52.124;5.422;2024-01-30T06:53:56;102499.66;;;6.74;100.00
71964;BME280;59834;52.124;5.422;2024-01-30T06:56:23;102494.47;;;6.74;100.00
71964;BME280;59834;52.124;5.422;2024-01-30T06:58:51;102505.72;;;6.76;100.00
71964;BME280;59834;52.124;5.422;2024-01-30T07:01:19;102509.16;;;6.76;100.00
71964;BME280;59834;52.124;5.422;2024-01-30T07:03:55;102501.34;;;6.78;100.00
71964;BME280;59834;52.124;5.422;2024-01-30T07:06:22;102493.53;;;6.78;100.00
71964;BME280;59834;52.124;5.422;2024-01-30T07:08:49;102505.69;;;6.77;100.00
71964;BME280;59834;52.124;5.422;2024-01-30T07:11:20;102506.50;;;6.81;100.00
71964;BME280;59834;52.124;5.422;2024-01-30T07:13:51;102489.97;;;6.82;100.00
71964;BME280;59834;52.124;5.422;2024-01-30T07:16:19;102502.03;;;6.86;100.00
71964;BME280;59834;52.124;5.422;2024-01-30T07:18:49;102499.41;;;6.88;100.00
71964;BME280;59834;52.124;5.422;2024-01-30T07:21:16;102504.50;;;6.91;100.00
71964;BME280;59834;52.124;5.422;2024-01-30T07:23:43;102501.00;;;6.93;100.00
71964;BME280;59834;52.124;5.422;2024-01-30T07:26:10;102522.69;;;6.94;100.00
71964;BME280;59834;52.124;5.422;2024-01-30T07:28:37;102507.94;;;6.94;100.00
71964;BME280;59834;52.124;5.422;2024-01-30T07:31:04;102513.94;;;6.98;100.00
71964;BME280;59834;52.124;5.422;2024-01-30T07:33:32;102520.91;;;6.96;100.00
71964;BME280;59834;52.124;5.422;2024-01-30T07:35:59;102516.56;;;6.96;100.00
71964;BME280;59834;52.124;5.422;2024-01-30T07:38:26;102520.00;;;6.98;100.00
71964;BME280;59834;52.124;5.422;2024-01-30T07:40:53;102532.97;;;7.00;100.00
71964;BME280;59834;52.124;5.422;2024-01-30T07:43:20;102525.06;;;7.04;100.00
71964;BME280;59834;52.124;5.422;2024-01-30T07:45:49;102524.91;;;7.11;100.00
71964;BME280;59834;52.124;5.422;2024-01-30T07:48:16;102528.34;;;7.13;100.00
71964;BME280;59834;52.124;5.422;2024-01-30T07:50:43;102533.50;;;7.16;100.00
71964;BME280;59834;52.124;5.422;2024-01-30T07:53:16;102535.97;;;7.20;100.00
71964;BME280;59834;52.124;5.422;2024-01-30T07:55:51;102541.97;;;7.25;100.00
71964;BME280;59834;52.124;5.422;2024-01-30T07:58:48;102542.75;;;7.29;100.00
71964;BME280;59834;52.124;5.422;2024-01-30T08:01:49;102546.97;;;7.35;100.00
71964;BME280;59834;52.124;5.422;2024-01-30T08:04:16;102543.41;;;7.37;100.00
71964;BME280;59834;52.124;5.422;2024-01-30T08:06:51;102545.09;;;7.41;100.00
71964;BME280;59834;52.124;5.422;2024-01-30T08:09:28;102538.00;;;7.46;100.00
71964;BME280;59834;52.124;5.422;2024-01-30T08:12:04;102559.53;;;7.54;100.00
71964;BME280;59834;52.124;5.422;2024-01-30T08:14:46;102537.72;;;7.59;100.00
71964;BME280;59834;52.124;5.422;2024-01-30T08:17:20;102542.88;;;7.62;100.00
71964;BME280;59834;52.124;5.422;2024-01-30T08:20:06;102538.44;;;7.65;100.00
71964;BME280;59834;52.124;5.422;2024-01-30T08:22:41;102540.91;;;7.71;100.00
71964;BME280;59834;52.124;5.422;2024-01-30T08:25:18;102545.09;;;7.77;100.00
71964;BME280;59834;52.124;5.422;2024-01-30T08:27:52;102538.03;;;7.80;100.00
71964;BME280;59834;52.124;5.422;2024-01-30T08:30:48;102532.69;;;7.87;100.00
71964;BME280;59834;52.124;5.422;2024-01-30T08:33:21;102542.97;;;7.93;100.00
71964;BME280;59834;52.124;5.422;2024-01-30T08:35:56;102546.28;;;7.99;100.00
71964;BME280;59834;52.124;5.422;2024-01-30T08:38:31;102547.00;;;8.04;100.00
71964;BME280;59834;52.124;5.422;2024-01-30T08:41:04;102536.34;;;8.14;100.00
71964;BME280;59834;52.124;5.422;2024-01-30T08:43:36;102539.63;;;8.22;100.00
71964;BME280;59834;52.124;5.422;2024-01-30T08:46:03;102542.94;;;8.27;100.00
71964;BME280;59834;52.124;5.422;2024-01-30T08:48:30;102539.28;;;8.34;100.00
71964;BME280;59834;52.124;5.422;2024-01-30T08:50:57;102541.75;;;8.40;100.00
71964;BME280;59834;52.124;5.422;2024-01-30T08:53:26;102539.81;;;8.47;100.00
71964;BME280;59834;52.124;5.422;2024-01-30T08:55:59;102533.53;;;8.54;100.00
71964;BME280;59834;52.124;5.422;2024-01-30T08:58:28;102535.03;;;8.63;100.00
71964;BME280;59834;52.124;5.422;2024-01-30T09:01:08;102545.13;;;8.75;100.00
71964;BME280;59834;52.124;5.422;2024-01-30T09:03:42;102547.44;;;8.86;100.00
71964;BME280;59834;52.124;5.422;2024-01-30T09:06:18;102547.25;;;8.92;100.00
71964;BME280;59834;52.124;5.422;2024-01-30T09:12:27;102542.22;;;9.15;100.00
71964;BME280;59834;52.124;5.422;2024-01-30T09:14:56;102544.59;;;9.23;100.00
71964;BME280;59834;52.124;5.422;2024-01-30T09:17:33;102542.59;;;9.31;100.00
71964;BME280;59834;52.124;5.422;2024-01-30T09:20:03;102533.56;;;9.41;100.00
71964;BME280;59834;52.124;5.422;2024-01-30T09:22:30;102555.09;;;9.50;100.00
71964;BME280;59834;52.124;5.422;2024-01-30T09:25:00;102561.16;;;9.50;100.00
71964;BME280;59834;52.124;5.422;2024-01-30T09:27:31;102557.84;;;9.45;100.00
71964;BME280;59834;52.124;5.422;2024-01-30T09:30:00;102561.34;;;9.44;100.00
71964;BME280;59834;52.124;5.422;2024-01-30T09:32:27;102569.28;;;9.41;100.00
71964;BME280;59834;52.124;5.422;2024-01-30T09:34:54;102564.81;;;9.44;100.00
71964;BME280;59834;52.124;5.422;2024-01-30T09:37:29;102560.41;;;9.47;100.00
71964;BME280;59834;52.124;5.422;2024-01-30T09:40:00;102568.94;;;9.52;100.00
71964;BME280;59834;52.124;5.422;2024-01-30T09:42:34;102566.31;;;9.53;100.00
71964;BME280;59834;52.124;5.422;2024-01-30T09:45:05;102564.63;;;9.51;100.00
71964;BME280;59834;52.124;5.422;2024-01-30T09:47:39;102563.63;;;9.55;100.00
71964;BME280;59834;52.124;5.422;2024-01-30T09:50:57;102577.44;;;9.60;100.00
71964;BME280;59834;52.124;5.422;2024-01-30T09:54:09;102575.81;;;9.56;100.00
71964;BME280;59834;52.124;5.422;2024-01-30T10:01:03;102581.75;;;9.61;100.00
71964;BME280;59834;52.124;5.422;2024-01-30T10:03:34;102583.31;;;9.66;100.00
71964;BME280;59834;52.124;5.422;2024-01-30T10:06:22;102585.88;;;9.68;100.00
71964;BME280;59834;52.124;5.422;2024-01-30T10:08:58;102585.97;;;9.65;100.00
71964;BME280;59834;52.124;5.422;2024-01-30T10:11:39;102585.19;;;9.63;100.00
71964;BME280;59834;52.124;5.422;2024-01-30T10:14:15;102576.41;;;9.64;100.00
71964;BME280;59834;52.124;5.422;2024-01-30T10:16:53;102581.59;;;9.65;100.00
71964;BME280;59834;52.124;5.422;2024-01-30T10:19:20;102580.72;;;9.65;100.00
71964;BME280;59834;52.124;5.422;2024-01-30T10:22:01;102581.34;;;9.73;100.00
71964;BME280;59834;52.124;5.422;2024-01-30T10:24:44;102589.88;;;9.80;100.00
71964;BME280;59834;52.124;5.422;2024-01-30T10:27:31;102574.72;;;9.89;100.00
71964;BME280;59834;52.124;5.422;2024-01-30T10:30:08;102574.50;;;9.96;100.00
71964;BME280;59834;52.124;5.422;2024-01-30T10:33:13;102572.41;;;10.07;100.00
71964;BME280;59834;52.124;5.422;2024-01-30T10:35:43;102580.72;;;10.18;100.00
71964;BME280;59834;52.124;5.422;2024-01-30T10:39:00;102594.47;;;10.26;100.00
71964;BME280;59834;52.124;5.422;2024-01-30T10:41:43;102588.78;;;10.38;100.00
71964;BME280;59834;52.124;5.422;2024-01-30T10:44:24;102571.31;;;10.39;100.00
71964;BME280;59834;52.124;5.422;2024-01-30T10:46:58;102575.81;;;10.35;100.00
71964;BME280;59834;52.124;5.422;2024-01-30T10:49:29;102596.06;;;10.30;100.00
71964;BME280;59834;52.124;5.422;2024-01-30T10:52:05;102586.69;;;10.23;100.00
71964;BME280;59834;52.124;5.422;2024-01-30T10:54:34;102594.63;;;10.20;100.00
71964;BME280;59834;52.124;5.422;2024-01-30T10:57:15;102603.38;;;10.19;100.00
71964;BME280;59834;52.124;5.422;2024-01-30T10:59:52;102589.34;;;10.22;100.00
71964;BME280;59834;52.124;5.422;2024-01-30T11:05:42;102599.25;;;10.38;100.00
71964;BME280;59834;52.124;5.422;2024-01-30T11:08:35;102580.91;;;10.40;100.00
71964;BME280;59834;52.124;5.422;2024-01-30T11:14:40;102596.31;;;10.48;100.00
71964;BME280;59834;52.124;5.422;2024-01-30T11:17:12;102580.19;;;10.60;100.00
71964;BME280;59834;52.124;5.422;2024-01-30T11:23:04;102591.34;;;10.65;100.00
71964;BME280;59834;52.124;5.422;2024-01-30T11:25:36;102602.72;;;10.64;100.00
71964;BME280;59834;52.124;5.422;2024-01-30T11:28:21;102596.78;;;10.59;100.00
71964;BME280;59834;52.124;5.422;2024-01-30T11:30:48;102604.59;;;10.60;100.00
71964;BME280;59834;52.124;5.422;2024-01-30T11:33:30;102603.06;;;10.55;100.00
71964;BME280;59834;52.124;5.422;2024-01-30T11:43:22;102626.72;;;10.27;100.00
71964;BME280;59834;52.124;5.422;2024-01-30T11:45:53;102623.34;;;10.22;100.00
71964;BME280;59834;52.124;5.422;2024-01-30T11:48:37;102618.31;;;10.15;100.00
71964;BME280;59834;52.124;5.422;2024-01-30T11:51:12;102630.72;;;10.10;100.00
71964;BME280;59834;52.124;5.422;2024-01-30T11:53:53;102636.13;;;10.04;100.00
71964;BME280;59834;52.124;5.422;2024-01-30T11:56:24;102633.63;;;10.01;100.00
71964;BME280;59834;52.124;5.422;2024-01-30T11:58:54;102637.16;;;10.00;100.00
71964;BME280;59834;52.124;5.422;2024-01-30T12:01:29;102619.94;;;9.93;100.00
71964;BME280;59834;52.124;5.422;2024-01-30T12:04:07;102629.56;;;9.93;100.00
71964;BME280;59834;52.124;5.422;2024-01-30T12:06:52;102637.50;;;9.89;100.00
71964;BME280;59834;52.124;5.422;2024-01-30T12:09:29;102641.00;;;9.88;100.00
71964;BME280;59834;52.124;5.422;2024-01-30T12:11:56;102645.34;;;9.89;100.00
71964;BME280;59834;52.124;5.422;2024-01-30T12:14:26;102639.38;;;9.86;100.00
71964;BME280;59834;52.124;5.422;2024-01-30T12:17:10;102650.78;;;9.83;100.00
71964;BME280;59834;52.124;5.422;2024-01-30T12:20:29;102646.56;;;9.78;100.00
71964;BME280;59834;52.124;5.422;2024-01-30T12:23:29;102646.63;;;9.76;99.03
71964;BME280;59834;52.124;5.422;2024-01-30T12:26:09;102657.47;;;9.64;97.68
71964;BME280;59834;52.124;5.422;2024-01-30T12:28:55;102662.34;;;9.47;98.39
71964;BME280;59834;52.124;5.422;2024-01-30T12:32:19;102691.44;;;9.34;100.00
71964;BME280;59834;52.124;5.422;2024-01-30T12:35:10;102686.56;;;9.22;100.00
71964;BME280;59834;52.124;5.422;2024-01-30T12:37:48;102699.06;;;9.12;100.00
71964;BME280;59834;52.124;5.422;2024-01-30T12:40:37;102691.28;;;9.09;100.00
71964;BME280;59834;52.124;5.422;2024-01-30T12:43:22;102706.13;;;9.09;100.00
71964;BME280;59834;52.124;5.422;2024-01-30T12:46:30;102688.00;;;9.03;100.00
71964;BME280;59834;52.124;5.422;2024-01-30T12:48:59;102691.47;;;9.03;100.00
71964;BME280;59834;52.124;5.422;2024-01-30T12:51:41;102693.94;;;9.08;100.00
71964;BME280;59834;52.124;5.422;2024-01-30T12:54:23;102692.88;;;9.15;100.00
71964;BME280;59834;52.124;5.422;2024-01-30T13:00:39;102698.16;;;9.13;100.00
71964;BME280;59834;52.124;5.422;2024-01-30T13:10:44;102693.22;;;9.03;99.34
71964;BME280;59834;52.124;5.422;2024-01-30T13:13:19;102680.16;;;9.03;100.00
71964;BME280;59834;52.124;5.422;2024-01-30T13:16:02;102687.16;;;9.01;100.00
71964;BME280;59834;52.124;5.422;2024-01-30T13:18:37;102695.75;;;9.06;100.00
71964;BME280;59834;52.124;5.422;2024-01-30T13:21:18;102688.88;;;9.02;100.00
71964;BME280;59834;52.124;5.422;2024-01-30T13:23:47;102693.41;;;8.95;100.00
71964;BME280;59834;52.124;5.422;2024-01-30T13:26:18;102699.50;;;8.95;100.00
71964;BME280;59834;52.124;5.422;2024-01-30T13:29:02;102687.47;;;8.90;100.00
71964;BME280;59834;52.124;5.422;2024-01-30T13:31:32;102704.81;;;8.92;100.00
71964;BME280;59834;52.124;5.422;2024-01-30T13:34:10;102702.16;;;8.94;100.00
71964;BME280;59834;52.124;5.422;2024-01-30T13:36:42;102704.81;;;8.92;100.00
71964;BME280;59834;52.124;5.422;2024-01-30T13:39:21;102703.91;;;8.93;100.00
71964;BME280;59834;52.124;5.422;2024-01-30T13:41:50;102704.81;;;8.92;100.00
71964;BME280;59834;52.124;5.422;2024-01-30T13:44:17;102703.16;;;8.88;100.00
71964;BME280;59834;52.124;5.422;2024-01-30T13:46:44;102716.41;;;8.82;100.00
71964;BME280;59834;52.124;5.422;2024-01-30T13:49:13;102699.28;;;8.70;100.00
71964;BME280;59834;52.124;5.422;2024-01-30T13:51:40;102708.06;;;8.68;100.00